X  Close Metar Aviation Weather Data     KSDL Scottsdale Airport
Temperature
84°F Temperature
66°F Dewpoint
55% Humidity



Wind
0 MPH
0 KM/H
0 M/S
0 KTS



Calm
North
Current Conditions

Clear Clear
Pressure 1016.92 (hPa) - 30.03 (inHg)
Visibility 9.9 (mile) - 16 (km)
Airport
Airport-code KSDL

Location: Scottsdale Airport
Distance: 14 (mi)

Metar:
KSDL 281353Z 00000KT 10SM CLR 29/19 A3003 RMK AO2 SLP138 T02890194

Time: 2021-07-28 06:53 MST